Terminal Aerodrome Forecast
Issued by NWS Twin Cities, MN

Home | Current Version | Previous Version | Text Only | Print | Product List | Glossary Off
Versions: 1 2 3 4 5 6 7 8 9 10 11 12 13 14 15 16 17 18 19 20 21 22 23 24 25 26 27 28 29 30 31 32

583
FTUS43 KMPX 242051 AAA
TAFMSP
TAF AMD
KMSP 242051Z 2421/2524 02012KT P6SM OVC020
     FM250500 04011KT P6SM OVC015
     FM251500 06013G20KT P6SM BKN020=

USA.gov is the U.S. government's official web portal to all federal, state and local government web resources and services.